sensor_id;sensor_type;location;lat;lon;timestamp;pressure;altitude;pressure_sealevel;temperature;humidity
61908;BME280;47864;52.526;19.672;2023-05-10T00:01:41;101423.16;;;9.35;65.41
61908;BME280;47864;52.526;19.672;2023-05-10T00:03:42;101383.38;;;9.03;66.33
61908;BME280;47864;52.526;19.672;2023-05-10T00:05:44;101412.59;;;9.12;66.79
61908;BME280;47864;52.526;19.672;2023-05-10T00:07:46;101442.91;;;9.20;68.94
61908;BME280;47864;52.526;19.672;2023-05-10T00:09:47;101436.44;;;9.12;68.31
61908;BME280;47864;52.526;19.672;2023-05-10T00:11:49;101431.38;;;9.09;68.85
61908;BME280;47864;52.526;19.672;2023-05-10T00:13:51;101417.19;;;8.88;70.04
61908;BME280;47864;52.526;19.672;2023-05-10T00:15:52;101424.97;;;8.90;69.79
61908;BME280;47864;52.526;19.672;2023-05-10T00:17:54;101429.06;;;8.83;73.00
61908;BME280;47864;52.526;19.672;2023-05-10T00:19:55;101434.47;;;8.70;73.46
61908;BME280;47864;52.526;19.672;2023-05-10T00:21:57;101423.13;;;8.57;70.95
61908;BME280;47864;52.526;19.672;2023-05-10T00:23:59;101417.00;;;8.45;72.60
61908;BME280;47864;52.526;19.672;2023-05-10T00:26:00;101425.16;;;8.42;73.20
61908;BME280;47864;52.526;19.672;2023-05-10T00:28:02;101423.34;;;8.31;72.30
61908;BME280;47864;52.526;19.672;2023-05-10T00:30:04;101424.13;;;8.21;74.30
61908;BME280;47864;52.526;19.672;2023-05-10T00:32:05;101412.75;;;8.08;75.19
61908;BME280;47864;52.526;19.672;2023-05-10T00:34:07;101400.94;;;7.89;74.79
61908;BME280;47864;52.526;19.672;2023-05-10T00:36:09;101419.56;;;7.99;75.77
61908;BME280;47864;52.526;19.672;2023-05-10T00:38:10;101411.84;;;7.85;76.87
61908;BME280;47864;52.526;19.672;2023-05-10T00:40:12;101420.50;;;7.87;77.11
61908;BME280;47864;52.526;19.672;2023-05-10T00:42:14;101416.63;;;7.80;76.46
61908;BME280;47864;52.526;19.672;2023-05-10T00:44:16;101420.22;;;7.79;75.58
61908;BME280;47864;52.526;19.672;2023-05-10T00:46:18;101421.53;;;7.73;76.17
61908;BME280;47864;52.526;19.672;2023-05-10T00:48:20;101413.31;;;7.65;76.35
61908;BME280;47864;52.526;19.672;2023-05-10T00:50:23;101416.16;;;7.62;77.90
61908;BME280;47864;52.526;19.672;2023-05-10T00:52:24;101368.81;;;7.24;79.17
61908;BME280;47864;52.526;19.672;2023-05-10T00:54:26;101418.72;;;7.51;78.35
61908;BME280;47864;52.526;19.672;2023-05-10T00:56:28;101407.59;;;7.35;80.13
61908;BME280;47864;52.526;19.672;2023-05-10T00:58:29;101414.81;;;7.33;82.37
61908;BME280;47864;52.526;19.672;2023-05-10T01:00:32;101412.38;;;7.30;83.81
61908;BME280;47864;52.526;19.672;2023-05-10T01:02:34;101417.00;;;7.26;82.44
61908;BME280;47864;52.526;19.672;2023-05-10T01:04:36;101403.22;;;7.10;82.55
61908;BME280;47864;52.526;19.672;2023-05-10T01:06:40;101393.31;;;7.01;84.82
61908;BME280;47864;52.526;19.672;2023-05-10T01:08:41;101413.06;;;7.08;86.83
61908;BME280;47864;52.526;19.672;2023-05-10T01:10:43;101396.94;;;7.00;86.62
61908;BME280;47864;52.526;19.672;2023-05-10T01:12:46;101409.44;;;7.09;85.76
61908;BME280;47864;52.526;19.672;2023-05-10T01:14:48;101403.78;;;7.02;84.48
61908;BME280;47864;52.526;19.672;2023-05-10T01:16:50;101409.91;;;7.03;84.68
61908;BME280;47864;52.526;19.672;2023-05-10T01:18:52;101396.50;;;6.93;85.90
61908;BME280;47864;52.526;19.672;2023-05-10T01:21:07;101399.38;;;6.90;86.71
61908;BME280;47864;52.526;19.672;2023-05-10T01:32:22;101382.09;;;6.48;90.82
61908;BME280;47864;52.526;19.672;2023-05-10T01:34:40;101401.31;;;6.50;91.69
61908;BME280;47864;52.526;19.672;2023-05-10T01:37:02;101402.84;;;6.53;90.45
61908;BME280;47864;52.526;19.672;2023-05-10T01:43:33;101380.81;;;6.28;95.80
61908;BME280;47864;52.526;19.672;2023-05-10T01:45:42;101398.13;;;6.32;100.00
61908;BME280;47864;52.526;19.672;2023-05-10T01:47:54;101396.00;;;6.25;100.00
61908;BME280;47864;52.526;19.672;2023-05-10T01:50:01;101393.66;;;6.20;100.00
61908;BME280;47864;52.526;19.672;2023-05-10T01:52:09;101373.72;;;6.03;100.00
61908;BME280;47864;52.526;19.672;2023-05-10T01:54:13;101380.16;;;6.12;100.00
61908;BME280;47864;52.526;19.672;2023-05-10T01:56:15;101392.09;;;6.18;100.00
61908;BME280;47864;52.526;19.672;2023-05-10T01:58:25;101372.69;;;6.19;100.00
61908;BME280;47864;52.526;19.672;2023-05-10T02:00:29;101372.41;;;6.23;100.00
61908;BME280;47864;52.526;19.672;2023-05-10T02:02:35;101369.53;;;6.14;100.00
61908;BME280;47864;52.526;19.672;2023-05-10T02:04:41;101363.09;;;6.05;100.00
61908;BME280;47864;52.526;19.672;2023-05-10T02:06:44;101381.25;;;6.22;100.00
61908;BME280;47864;52.526;19.672;2023-05-10T02:08:49;101376.63;;;6.26;100.00
61908;BME280;47864;52.526;19.672;2023-05-10T02:10:54;101375.78;;;6.25;100.00
61908;BME280;47864;52.526;19.672;2023-05-10T02:12:58;101372.81;;;6.30;100.00
61908;BME280;47864;52.526;19.672;2023-05-10T02:15:02;101367.88;;;6.25;100.00
61908;BME280;47864;52.526;19.672;2023-05-10T02:17:06;101374.31;;;6.34;100.00
61908;BME280;47864;52.526;19.672;2023-05-10T02:19:10;101369.34;;;6.42;100.00
61908;BME280;47864;52.526;19.672;2023-05-10T02:21:13;101366.81;;;6.40;100.00
61908;BME280;47864;52.526;19.672;2023-05-10T02:23:17;101335.28;;;6.26;100.00
61908;BME280;47864;52.526;19.672;2023-05-10T02:25:19;101374.41;;;6.58;100.00
61908;BME280;47864;52.526;19.672;2023-05-10T02:27:22;101375.34;;;6.57;100.00
61908;BME280;47864;52.526;19.672;2023-05-10T02:29:27;101373.22;;;6.62;99.95
61908;BME280;47864;52.526;19.672;2023-05-10T02:31:31;101353.63;;;6.53;99.76
61908;BME280;47864;52.526;19.672;2023-05-10T02:33:33;101382.00;;;6.62;97.92
61908;BME280;47864;52.526;19.672;2023-05-10T02:35:37;101366.28;;;6.61;99.41
61908;BME280;47864;52.526;19.672;2023-05-10T02:37:39;101381.25;;;6.60;98.34
61908;BME280;47864;52.526;19.672;2023-05-10T02:39:41;101382.31;;;6.58;98.86
61908;BME280;47864;52.526;19.672;2023-05-10T02:41:43;101367.75;;;6.52;97.99
61908;BME280;47864;52.526;19.672;2023-05-10T02:43:46;101380.94;;;6.52;99.34
61908;BME280;47864;52.526;19.672;2023-05-10T02:45:48;101386.81;;;6.43;100.00
61908;BME280;47864;52.526;19.672;2023-05-10T02:47:50;101380.72;;;6.42;100.00
61908;BME280;47864;52.526;19.672;2023-05-10T02:49:52;101362.28;;;6.30;100.00
61908;BME280;47864;52.526;19.672;2023-05-10T02:51:56;101377.47;;;6.39;100.00
61908;BME280;47864;52.526;19.672;2023-05-10T02:54:11;101383.16;;;6.45;99.33
61908;BME280;47864;52.526;19.672;2023-05-10T02:56:15;101370.72;;;6.47;100.00
61908;BME280;47864;52.526;19.672;2023-05-10T02:58:21;101363.75;;;6.46;100.00
61908;BME280;47864;52.526;19.672;2023-05-10T03:00:24;101384.00;;;6.59;100.00
61908;BME280;47864;52.526;19.672;2023-05-10T03:02:26;101382.91;;;7.36;93.16
61908;BME280;47864;52.526;19.672;2023-05-10T03:04:27;101386.91;;;6.92;92.04
61908;BME280;47864;52.526;19.672;2023-05-10T03:06:29;101386.84;;;6.81;92.37
61908;BME280;47864;52.526;19.672;2023-05-10T03:08:30;101390.81;;;6.86;93.95
61908;BME280;47864;52.526;19.672;2023-05-10T03:10:33;101399.03;;;6.95;93.55
61908;BME280;47864;52.526;19.672;2023-05-10T03:19:53;101392.91;;;6.94;95.28
61908;BME280;47864;52.526;19.672;2023-05-10T03:21:59;101381.25;;;6.73;98.83
61908;BME280;47864;52.526;19.672;2023-05-10T03:24:11;101395.69;;;6.80;98.63
61908;BME280;47864;52.526;19.672;2023-05-10T03:26:17;101385.44;;;6.75;99.47
61908;BME280;47864;52.526;19.672;2023-05-10T03:28:24;101376.63;;;6.64;100.00
61908;BME280;47864;52.526;19.672;2023-05-10T03:30:27;101382.06;;;6.86;100.00
61908;BME280;47864;52.526;19.672;2023-05-10T03:32:29;101370.88;;;6.95;99.78
61908;BME280;47864;52.526;19.672;2023-05-10T03:34:31;101378.88;;;6.94;99.30
61908;BME280;47864;52.526;19.672;2023-05-10T03:36:32;101388.59;;;6.93;100.00
61908;BME280;47864;52.526;19.672;2023-05-10T03:38:34;101377.94;;;6.95;100.00
61908;BME280;47864;52.526;19.672;2023-05-10T03:40:35;101385.53;;;6.99;100.00
61908;BME280;47864;52.526;19.672;2023-05-10T03:42:37;101381.81;;;7.02;100.00
61908;BME280;47864;52.526;19.672;2023-05-10T03:44:39;101385.00;;;7.07;100.00
61908;BME280;47864;52.526;19.672;2023-05-10T03:46:41;101378.63;;;7.09;100.00
61908;BME280;47864;52.526;19.672;2023-05-10T03:48:42;101364.09;;;7.04;98.65
61908;BME280;47864;52.526;19.672;2023-05-10T03:50:44;101378.63;;;7.09;98.87
61908;BME280;47864;52.526;19.672;2023-05-10T03:52:45;101379.19;;;7.38;95.88
61908;BME280;47864;52.526;19.672;2023-05-10T03:54:47;101373.84;;;7.75;96.24
61908;BME280;47864;52.526;19.672;2023-05-10T03:56:48;101373.78;;;7.87;92.52
61908;BME280;47864;52.526;19.672;2023-05-10T03:58:50;101356.03;;;7.89;89.96
61908;BME280;47864;52.526;19.672;2023-05-10T04:00:51;101371.28;;;8.32;88.06
61908;BME280;47864;52.526;19.672;2023-05-10T04:02:53;101372.31;;;8.64;85.16
61908;BME280;47864;52.526;19.672;2023-05-10T04:04:55;101364.63;;;8.95;79.30
61908;BME280;47864;52.526;19.672;2023-05-10T04:06:56;101368.72;;;10.06;74.59
61908;BME280;47864;52.526;19.672;2023-05-10T04:08:58;101372.41;;;10.56;69.54
61908;BME280;47864;52.526;19.672;2023-05-10T04:13:07;101372.88;;;12.37;60.63
61908;BME280;47864;52.526;19.672;2023-05-10T04:15:09;101383.50;;;12.47;60.37
61908;BME280;47864;52.526;19.672;2023-05-10T04:17:11;101359.94;;;12.52;61.34
61908;BME280;47864;52.526;19.672;2023-05-10T04:19:12;101382.28;;;12.12;58.67
61908;BME280;47864;52.526;19.672;2023-05-10T04:21:14;101377.28;;;11.90;60.52
61908;BME280;47864;52.526;19.672;2023-05-10T04:23:16;101341.13;;;13.00;55.61
61908;BME280;47864;52.526;19.672;2023-05-10T04:25:17;101382.16;;;13.34;54.83
61908;BME280;47864;52.526;19.672;2023-05-10T04:27:19;101381.34;;;13.34;53.61
61908;BME280;47864;52.526;19.672;2023-05-10T04:29:21;101372.78;;;13.03;53.91
61908;BME280;47864;52.526;19.672;2023-05-10T04:31:22;101386.63;;;13.16;55.90
61908;BME280;47864;52.526;19.672;2023-05-10T04:33:23;101368.03;;;13.69;52.98
61908;BME280;47864;52.526;19.672;2023-05-10T04:35:25;101375.81;;;13.63;52.01
61908;BME280;47864;52.526;19.672;2023-05-10T04:37:27;101383.59;;;13.56;53.44
61908;BME280;47864;52.526;19.672;2023-05-10T04:39:28;101352.94;;;14.14;50.48
61908;BME280;47864;52.526;19.672;2023-05-10T04:41:30;101375.47;;;14.63;50.23
61908;BME280;47864;52.526;19.672;2023-05-10T04:43:31;101365.38;;;15.24;48.06
61908;BME280;47864;52.526;19.672;2023-05-10T04:45:32;101370.56;;;15.76;45.46
61908;BME280;47864;52.526;19.672;2023-05-10T04:47:34;101367.56;;;15.87;46.22
61908;BME280;47864;52.526;19.672;2023-05-10T04:49:36;101370.06;;;16.21;44.22
61908;BME280;47864;52.526;19.672;2023-05-10T04:51:37;101369.03;;;15.74;44.12
61908;BME280;47864;52.526;19.672;2023-05-10T04:53:39;101375.75;;;15.94;43.72
61908;BME280;47864;52.526;19.672;2023-05-10T04:55:42;101357.34;;;16.15;43.01
61908;BME280;47864;52.526;19.672;2023-05-10T04:57:43;101376.75;;;15.93;43.23
61908;BME280;47864;52.526;19.672;2023-05-10T04:59:45;101374.06;;;16.33;42.66
61908;BME280;47864;52.526;19.672;2023-05-10T05:01:49;101377.72;;;16.49;41.07
61908;BME280;47864;52.526;19.672;2023-05-10T05:03:50;101379.38;;;16.58;40.81
61908;BME280;47864;52.526;19.672;2023-05-10T05:05:52;101371.72;;;16.06;41.07
61908;BME280;47864;52.526;19.672;2023-05-10T05:07:54;101364.72;;;15.73;42.92
61908;BME280;47864;52.526;19.672;2023-05-10T05:09:55;101366.06;;;16.09;41.85
61908;BME280;47864;52.526;19.672;2023-05-10T05:11:57;101382.28;;;17.11;40.44
61908;BME280;47864;52.526;19.672;2023-05-10T05:13:59;101365.84;;;17.06;38.94
61908;BME280;47864;52.526;19.672;2023-05-10T05:16:01;101370.13;;;16.85;39.53
61908;BME280;47864;52.526;19.672;2023-05-10T05:18:03;101377.72;;;16.65;39.76
61908;BME280;47864;52.526;19.672;2023-05-10T05:20:05;101369.72;;;16.24;40.24
61908;BME280;47864;52.526;19.672;2023-05-10T05:22:07;101367.69;;;16.51;41.17
61908;BME280;47864;52.526;19.672;2023-05-10T05:24:09;101362.16;;;16.44;40.62
61908;BME280;47864;52.526;19.672;2023-05-10T05:26:10;101351.56;;;16.75;39.48
61908;BME280;47864;52.526;19.672;2023-05-10T05:28:12;101366.72;;;16.19;41.83
61908;BME280;47864;52.526;19.672;2023-05-10T05:30:14;101366.66;;;16.68;40.49
61908;BME280;47864;52.526;19.672;2023-05-10T05:32:15;101361.81;;;16.47;40.43
61908;BME280;47864;52.526;19.672;2023-05-10T05:34:17;101350.00;;;16.09;40.68
61908;BME280;47864;52.526;19.672;2023-05-10T05:36:19;101355.19;;;16.19;41.31
61908;BME280;47864;52.526;19.672;2023-05-10T05:38:20;101351.03;;;16.88;40.15
61908;BME280;47864;52.526;19.672;2023-05-10T05:40:21;101350.28;;;16.55;41.02
61908;BME280;47864;52.526;19.672;2023-05-10T05:42:23;101366.22;;;17.03;40.05
61908;BME280;47864;52.526;19.672;2023-05-10T05:44:25;101356.53;;;17.56;39.30
61908;BME280;47864;52.526;19.672;2023-05-10T05:46:26;101360.56;;;18.20;38.24
61908;BME280;47864;52.526;19.672;2023-05-10T05:48:30;101353.78;;;17.41;39.14
61908;BME280;47864;52.526;19.672;2023-05-10T05:50:31;101363.63;;;17.18;38.95
61908;BME280;47864;52.526;19.672;2023-05-10T05:52:33;101361.53;;;17.67;39.39
61908;BME280;47864;52.526;19.672;2023-05-10T05:54:34;101361.56;;;17.59;37.91
61908;BME280;47864;52.526;19.672;2023-05-10T05:56:36;101363.41;;;17.28;39.71
61908;BME280;47864;52.526;19.672;2023-05-10T05:58:37;101361.59;;;17.82;38.74
61908;BME280;47864;52.526;19.672;2023-05-10T06:00:39;101352.44;;;17.91;37.14
61908;BME280;47864;52.526;19.672;2023-05-10T06:02:40;101357.06;;;17.82;37.27
61908;BME280;47864;52.526;19.672;2023-05-10T06:04:42;101366.44;;;18.24;37.45
61908;BME280;47864;52.526;19.672;2023-05-10T06:06:45;101352.00;;;18.40;35.97
61908;BME280;47864;52.526;19.672;2023-05-10T06:08:46;101351.00;;;18.55;36.75
61908;BME280;47864;52.526;19.672;2023-05-10T06:10:48;101359.25;;;18.02;36.44
61908;BME280;47864;52.526;19.672;2023-05-10T06:12:49;101347.03;;;17.99;35.98
61908;BME280;47864;52.526;19.672;2023-05-10T06:14:51;101361.94;;;17.79;37.12
61908;BME280;47864;52.526;19.672;2023-05-10T06:16:52;101366.00;;;17.75;37.14
61908;BME280;47864;52.526;19.672;2023-05-10T06:18:54;101346.78;;;17.32;38.30
61908;BME280;47864;52.526;19.672;2023-05-10T06:20:56;101355.94;;;18.14;36.66
61908;BME280;47864;52.526;19.672;2023-05-10T06:22:57;101348.66;;;18.38;35.95
61908;BME280;47864;52.526;19.672;2023-05-10T06:24:59;101364.84;;;18.15;36.77
61908;BME280;47864;52.526;19.672;2023-05-10T06:27:00;101356.84;;;17.61;36.83
61908;BME280;47864;52.526;19.672;2023-05-10T06:29:02;101335.09;;;18.02;36.67
61908;BME280;47864;52.526;19.672;2023-05-10T06:31:04;101351.50;;;18.21;36.64
61908;BME280;47864;52.526;19.672;2023-05-10T06:33:06;101343.72;;;18.64;35.87
61908;BME280;47864;52.526;19.672;2023-05-10T06:35:07;101357.88;;;19.17;35.56
61908;BME280;47864;52.526;19.672;2023-05-10T06:37:09;101327.94;;;19.05;34.90
61908;BME280;47864;52.526;19.672;2023-05-10T06:39:11;101350.91;;;19.44;34.63
61908;BME280;47864;52.526;19.672;2023-05-10T06:41:12;101339.44;;;19.71;33.63
61908;BME280;47864;52.526;19.672;2023-05-10T06:43:14;101336.50;;;19.66;34.53
61908;BME280;47864;52.526;19.672;2023-05-10T06:45:16;101349.19;;;19.51;34.02
61908;BME280;47864;52.526;19.672;2023-05-10T06:47:18;101347.16;;;19.02;34.26
61908;BME280;47864;52.526;19.672;2023-05-10T06:49:20;101347.84;;;19.25;33.73
61908;BME280;47864;52.526;19.672;2023-05-10T06:51:21;101341.72;;;19.17;34.49
61908;BME280;47864;52.526;19.672;2023-05-10T06:53:23;101344.63;;;19.36;34.32
61908;BME280;47864;52.526;19.672;2023-05-10T06:55:25;101325.34;;;18.97;33.52
61908;BME280;47864;52.526;19.672;2023-05-10T06:57:27;101334.72;;;18.57;34.84
61908;BME280;47864;52.526;19.672;2023-05-10T06:59:32;101340.16;;;18.34;34.29
61908;BME280;47864;52.526;19.672;2023-05-10T07:01:34;101345.03;;;18.83;35.16
61908;BME280;47864;52.526;19.672;2023-05-10T07:03:36;101338.16;;;18.66;33.97
61908;BME280;47864;52.526;19.672;2023-05-10T07:05:37;101340.19;;;18.93;34.07
61908;BME280;47864;52.526;19.672;2023-05-10T07:07:39;101346.25;;;19.67;34.38
61908;BME280;47864;52.526;19.672;2023-05-10T07:09:41;101342.59;;;19.74;32.21
61908;BME280;47864;52.526;19.672;2023-05-10T07:11:42;101333.09;;;19.57;32.45
61908;BME280;47864;52.526;19.672;2023-05-10T07:13:44;101347.34;;;19.72;31.66
61908;BME280;47864;52.526;19.672;2023-05-10T07:15:45;101347.53;;;19.35;31.56
61908;BME280;47864;52.526;19.672;2023-05-10T07:17:46;101350.03;;;19.51;31.83
61908;BME280;47864;52.526;19.672;2023-05-10T07:19:48;101329.13;;;19.38;31.63
61908;BME280;47864;52.526;19.672;2023-05-10T07:21:50;101342.00;;;19.58;31.99
61908;BME280;47864;52.526;19.672;2023-05-10T07:23:51;101348.09;;;19.30;31.33
61908;BME280;47864;52.526;19.672;2023-05-10T07:25:53;101345.84;;;19.49;31.55
61908;BME280;47864;52.526;19.672;2023-05-10T07:27:54;101332.72;;;19.24;31.53
61908;BME280;47864;52.526;19.672;2023-05-10T07:29:56;101356.72;;;18.60;32.64
61908;BME280;47864;52.526;19.672;2023-05-10T07:31:58;101341.47;;;18.97;32.25
61908;BME280;47864;52.526;19.672;2023-05-10T07:33:59;101350.50;;;19.76;32.61
61908;BME280;47864;52.526;19.672;2023-05-10T07:36:00;101342.97;;;19.50;31.12
61908;BME280;47864;52.526;19.672;2023-05-10T07:38:02;101349.16;;;19.15;31.52
61908;BME280;47864;52.526;19.672;2023-05-10T07:40:04;101340.78;;;19.82;31.97
61908;BME280;47864;52.526;19.672;2023-05-10T07:42:06;101355.66;;;19.99;31.86
61908;BME280;47864;52.526;19.672;2023-05-10T07:44:08;101353.00;;;19.42;30.63
61908;BME280;47864;52.526;19.672;2023-05-10T07:46:09;101331.56;;;18.97;32.07
61908;BME280;47864;52.526;19.672;2023-05-10T07:48:11;101337.88;;;18.90;31.86
61908;BME280;47864;52.526;19.672;2023-05-10T07:50:12;101316.91;;;18.56;32.23
61908;BME280;47864;52.526;19.672;2023-05-10T07:52:14;101331.28;;;18.78;32.94
61908;BME280;47864;52.526;19.672;2023-05-10T07:54:15;101345.69;;;20.42;30.93
61908;BME280;47864;52.526;19.672;2023-05-10T07:56:37;101334.41;;;21.07;29.98
61908;BME280;47864;52.526;19.672;2023-05-10T07:58:38;101334.25;;;20.40;30.19
61908;BME280;47864;52.526;19.672;2023-05-10T08:00:40;101343.09;;;21.03;29.19
61908;BME280;47864;52.526;19.672;2023-05-10T08:02:41;101333.28;;;21.36;28.86
61908;BME280;47864;52.526;19.672;2023-05-10T08:04:43;101336.84;;;21.50;28.53
61908;BME280;47864;52.526;19.672;2023-05-10T08:06:44;101334.94;;;20.27;28.49
61908;BME280;47864;52.526;19.672;2023-05-10T08:08:47;101321.38;;;20.14;29.09
61908;BME280;47864;52.526;19.672;2023-05-10T08:10:48;101321.06;;;20.02;29.46
61908;BME280;47864;52.526;19.672;2023-05-10T08:12:50;101334.31;;;20.53;29.12
61908;BME280;47864;52.526;19.672;2023-05-10T08:14:54;101342.09;;;20.69;29.10
61908;BME280;47864;52.526;19.672;2023-05-10T08:16:56;101319.69;;;19.85;29.54
61908;BME280;47864;52.526;19.672;2023-05-10T08:18:57;101333.38;;;20.67;29.29
61908;BME280;47864;52.526;19.672;2023-05-10T08:20:59;101313.63;;;20.04;27.78
61908;BME280;47864;52.526;19.672;2023-05-10T08:23:00;101320.25;;;20.02;27.93
61908;BME280;47864;52.526;19.672;2023-05-10T08:25:02;101325.34;;;20.18;27.77
61908;BME280;47864;52.526;19.672;2023-05-10T08:27:07;101328.81;;;19.84;28.00
61908;BME280;47864;52.526;19.672;2023-05-10T08:29:09;101317.56;;;20.30;28.77
61908;BME280;47864;52.526;19.672;2023-05-10T08:31:10;101330.09;;;20.37;29.44
61908;BME280;47864;52.526;19.672;2023-05-10T08:33:12;101333.34;;;20.33;28.70
61908;BME280;47864;52.526;19.672;2023-05-10T08:35:13;101317.84;;;20.76;28.19
61908;BME280;47864;52.526;19.672;2023-05-10T08:37:15;101321.47;;;20.89;27.52
61908;BME280;47864;52.526;19.672;2023-05-10T08:39:17;101334.53;;;20.51;27.61
61908;BME280;47864;52.526;19.672;2023-05-10T08:41:33;101331.47;;;21.02;27.83
61908;BME280;47864;52.526;19.672;2023-05-10T08:43:37;101323.50;;;20.46;28.17
61908;BME280;47864;52.526;19.672;2023-05-10T08:45:40;101327.06;;;19.55;27.48
61908;BME280;47864;52.526;19.672;2023-05-10T08:47:42;101316.72;;;19.37;28.76
61908;BME280;47864;52.526;19.672;2023-05-10T08:49:47;101331.75;;;19.89;28.73
61908;BME280;47864;52.526;19.672;2023-05-10T08:51:54;101336.53;;;20.43;28.51
61908;BME280;47864;52.526;19.672;2023-05-10T08:53:56;101329.25;;;20.71;28.03
61908;BME280;47864;52.526;19.672;2023-05-10T08:55:58;101326.97;;;20.34;27.58
61908;BME280;47864;52.526;19.672;2023-05-10T08:58:00;101305.69;;;19.96;27.68
61908;BME280;47864;52.526;19.672;2023-05-10T09:00:02;101316.22;;;20.19;27.88
61908;BME280;47864;52.526;19.672;2023-05-10T09:02:04;101328.06;;;20.46;27.82
61908;BME280;47864;52.526;19.672;2023-05-10T09:04:06;101310.34;;;19.81;27.44
61908;BME280;47864;52.526;19.672;2023-05-10T09:06:08;101317.31;;;19.97;28.24
61908;BME280;47864;52.526;19.672;2023-05-10T09:08:09;101321.94;;;20.09;27.81
61908;BME280;47864;52.526;19.672;2023-05-10T09:10:11;101302.88;;;20.04;27.91
61908;BME280;47864;52.526;19.672;2023-05-10T09:12:14;101323.44;;;20.12;27.57
61908;BME280;47864;52.526;19.672;2023-05-10T09:14:16;101319.88;;;20.05;27.76
61908;BME280;47864;52.526;19.672;2023-05-10T09:16:18;101312.28;;;20.43;28.52
61908;BME280;47864;52.526;19.672;2023-05-10T09:18:22;101319.41;;;20.50;28.28
61908;BME280;47864;52.526;19.672;2023-05-10T09:20:27;101314.09;;;20.36;28.45
61908;BME280;47864;52.526;19.672;2023-05-10T09:22:33;101324.63;;;20.59;27.67
61908;BME280;47864;52.526;19.672;2023-05-10T09:24:34;101318.41;;;20.30;27.89
61908;BME280;47864;52.526;19.672;2023-05-10T09:26:45;101315.00;;;20.22;28.61
61908;BME280;47864;52.526;19.672;2023-05-10T09:28:52;101315.50;;;20.32;28.79
61908;BME280;47864;52.526;19.672;2023-05-10T09:30:53;101318.88;;;20.34;27.81
61908;BME280;47864;52.526;19.672;2023-05-10T09:32:56;101311.88;;;20.18;28.42
61908;BME280;47864;52.526;19.672;2023-05-10T09:35:06;101317.09;;;20.47;28.41
61908;BME280;47864;52.526;19.672;2023-05-10T09:37:07;101317.09;;;20.82;28.50
61908;BME280;47864;52.526;19.672;2023-05-10T09:39:09;101321.56;;;20.68;27.12
61908;BME280;47864;52.526;19.672;2023-05-10T09:41:17;101297.00;;;20.50;27.44
61908;BME280;47864;52.526;19.672;2023-05-10T09:43:19;101285.59;;;20.27;28.31
61908;BME280;47864;52.526;19.672;2023-05-10T09:45:23;101318.56;;;20.91;28.36
61908;BME280;47864;52.526;19.672;2023-05-10T09:47:24;101316.97;;;20.62;27.63
61908;BME280;47864;52.526;19.672;2023-05-10T09:49:26;101314.94;;;20.08;27.84
61908;BME280;47864;52.526;19.672;2023-05-10T09:51:28;101305.41;;;20.34;28.22
61908;BME280;47864;52.526;19.672;2023-05-10T09:53:29;101306.47;;;20.39;27.81
61908;BME280;47864;52.526;19.672;2023-05-10T09:57:37;101317.31;;;20.52;27.91
61908;BME280;47864;52.526;19.672;2023-05-10T09:59:42;101302.53;;;20.14;27.64
61908;BME280;47864;52.526;19.672;2023-05-10T10:01:50;101297.53;;;20.11;28.47
61908;BME280;47864;52.526;19.672;2023-05-10T10:03:52;101300.28;;;20.45;28.31
61908;BME280;47864;52.526;19.672;2023-05-10T10:05:54;101275.09;;;20.32;28.22
61908;BME280;47864;52.526;19.672;2023-05-10T10:07:57;101296.09;;;19.87;28.83
61908;BME280;47864;52.526;19.672;2023-05-10T10:09:59;101296.09;;;20.43;28.63
61908;BME280;47864;52.526;19.672;2023-05-10T10:12:02;101279.91;;;20.36;27.75
61908;BME280;47864;52.526;19.672;2023-05-10T10:14:04;101282.31;;;20.25;27.65
61908;BME280;47864;52.526;19.672;2023-05-10T10:16:07;101298.59;;;19.89;27.57
61908;BME280;47864;52.526;19.672;2023-05-10T10:18:13;101282.16;;;20.05;27.97
61908;BME280;47864;52.526;19.672;2023-05-10T10:20:15;101291.63;;;20.29;27.69
61908;BME280;47864;52.526;19.672;2023-05-10T10:22:18;101271.97;;;20.00;27.42
61908;BME280;47864;52.526;19.672;2023-05-10T10:24:19;101279.16;;;19.93;27.53
61908;BME280;47864;52.526;19.672;2023-05-10T10:26:21;101257.00;;;19.70;28.28
61908;BME280;47864;52.526;19.672;2023-05-10T10:30:45;101269.66;;;20.60;26.93
61908;BME280;47864;52.526;19.672;2023-05-10T10:33:01;101278.63;;;20.32;27.77
61908;BME280;47864;52.526;19.672;2023-05-10T10:35:28;101255.81;;;19.72;27.89
61908;BME280;47864;52.526;19.672;2023-05-10T10:37:44;101266.38;;;20.02;28.10
61908;BME280;47864;52.526;19.672;2023-05-10T10:39:48;101269.13;;;20.08;27.70
61908;BME280;47864;52.526;19.672;2023-05-10T10:41:55;101267.78;;;20.54;27.66
61908;BME280;47864;52.526;19.672;2023-05-10T10:46:23;101250.56;;;20.55;27.99
61908;BME280;47864;52.526;19.672;2023-05-10T10:48:24;101271.22;;;20.75;27.47
61908;BME280;47864;52.526;19.672;2023-05-10T10:50:26;101267.81;;;20.26;26.26
61908;BME280;47864;52.526;19.672;2023-05-10T10:52:31;101264.16;;;20.12;27.08
61908;BME280;47864;52.526;19.672;2023-05-10T10:54:32;101266.22;;;20.10;26.36
61908;BME280;47864;52.526;19.672;2023-05-10T10:56:34;101266.47;;;20.15;26.83
61908;BME280;47864;52.526;19.672;2023-05-10T10:58:38;101274.59;;;20.22;26.34
61908;BME280;47864;52.526;19.672;2023-05-10T11:00:39;101249.72;;;20.20;26.26
61908;BME280;47864;52.526;19.672;2023-05-10T11:02:45;101264.00;;;20.41;25.93
61908;BME280;47864;52.526;19.672;2023-05-10T11:04:47;101258.97;;;20.10;26.93
61908;BME280;47864;52.526;19.672;2023-05-10T11:06:48;101254.69;;;19.88;25.87